Time;durP1;ratioP1;P1;durP2;ratioP2;P2;SDS_P1;SDS_P2;PMS_P1;PMS_P2;Temp;Humidity;BMP_temperature;BMP_pressure;BME280_temperature;BME280_humidity;BME280_pressure;Samples;Min_cycle;Max_cycle;Signal;HPM_P1;HPM_P2
2023/12/25 00:00:38;;;;;;;0.70;0.70;;;;;;;13.81;51.22;96188.14;105476;1262;72532;-45
2023/12/25 00:03:06;;;;;;;0.50;0.50;;;;;;;13.81;51.31;96177.61;105365;1262;62046;-45
2023/12/25 00:05:34;;;;;;;0.80;0.60;;;;;;;13.81;51.32;96166.23;105674;1258;62004;-45
2023/12/25 00:08:01;;;;;;;0.60;0.50;;;;;;;13.82;51.40;96159.33;105195;1259;75867;-45
2023/12/25 00:10:29;;;;;;;0.70;0.70;;;;;;;13.81;51.29;96158.54;105280;1261;65713;-46
2023/12/25 00:12:56;;;;;;;0.80;0.70;;;;;;;13.82;51.25;96157.33;105221;1257;72524;-45
2023/12/25 00:15:23;;;;;;;0.60;0.60;;;;;;;13.82;51.40;96158.25;105271;1261;62060;-45
2023/12/25 00:17:51;;;;;;;0.90;0.60;;;;;;;13.82;51.29;96151.11;105266;1261;62046;-44
2023/12/25 00:20:19;;;;;;;1.20;0.80;;;;;;;13.83;51.28;96147.27;105442;1261;75381;-45
2023/12/25 00:22:46;;;;;;;0.50;0.50;;;;;;;13.83;51.27;96146.19;105624;1261;65910;-45
2023/12/25 00:25:14;;;;;;;0.80;0.60;;;;;;;13.83;51.23;96145.58;105643;1260;71906;-45
2023/12/25 00:27:41;;;;;;;0.90;0.60;;;;;;;13.83;51.40;96147.66;105419;1260;62047;-45
2023/12/25 00:30:09;;;;;;;0.90;0.60;;;;;;;13.83;51.23;96142.28;105236;1259;62077;-45
2023/12/25 00:32:38;;;;;;;0.90;0.60;;;;;;;13.83;51.21;96138.45;105353;1259;75362;-45
2023/12/25 00:35:05;;;;;;;0.60;0.60;;;;;;;13.84;51.33;96142.99;105374;1261;64769;-45
2023/12/25 00:37:33;;;;;;;0.90;0.70;;;;;;;13.84;51.33;96141.00;105197;1258;72622;-45
2023/12/25 00:40:00;;;;;;;0.80;0.70;;;;;;;13.85;51.32;96146.55;105229;1262;62094;-45
2023/12/25 00:42:28;;;;;;;0.90;0.80;;;;;;;13.84;51.32;96143.46;105179;1259;62107;-44
2023/12/25 00:44:56;;;;;;;0.70;0.70;;;;;;;13.85;51.22;96147.56;105452;1262;75526;-45
2023/12/25 00:47:23;;;;;;;0.60;0.50;;;;;;;13.85;51.23;96143.87;105590;1259;66204;-45
2023/12/25 00:49:51;;;;;;;0.70;0.70;;;;;;;13.85;51.30;96127.10;105618;1259;72672;-45
2023/12/25 00:52:19;;;;;;;1.00;0.80;;;;;;;13.85;51.43;96114.73;105655;1261;62043;-45
2023/12/25 00:54:47;;;;;;;0.90;0.70;;;;;;;13.86;51.33;96109.89;105563;1261;62142;-45
2023/12/25 00:57:14;;;;;;;0.60;0.50;;;;;;;13.86;51.30;96108.89;105632;1260;75683;-45
2023/12/25 00:59:42;;;;;;;0.70;0.60;;;;;;;13.86;51.34;96097.45;105631;1259;66359;-44
2023/12/25 01:02:10;;;;;;;0.90;0.50;;;;;;;13.86;51.27;96096.05;105625;1257;72542;-44
2023/12/25 01:04:37;;;;;;;0.80;0.60;;;;;;;13.87;51.39;96095.30;105369;1262;62111;-44
2023/12/25 01:07:04;;;;;;;0.50;0.50;;;;;;;13.87;51.25;96092.30;105183;1261;62252;-45
2023/12/25 01:09:32;;;;;;;0.50;0.50;;;;;;;13.87;51.27;96091.70;105288;1261;75957;-45
2023/12/25 01:11:59;;;;;;;0.80;0.70;;;;;;;13.88;51.35;96095.31;105477;1261;65832;-44
2023/12/25 01:14:27;;;;;;;0.60;0.60;;;;;;;13.88;51.21;96091.55;105270;1257;72461;-44
2023/12/25 01:16:54;;;;;;;0.50;0.50;;;;;;;13.88;51.24;96092.10;105102;1261;62044;-45
2023/12/25 01:19:21;;;;;;;0.70;0.70;;;;;;;13.88;51.36;96083.88;105315;1257;62126;-45
2023/12/25 01:21:49;;;;;;;0.60;0.60;;;;;;;13.88;51.22;96081.56;105640;1262;75475;-45
2023/12/25 01:24:16;;;;;;;0.70;0.70;;;;;;;13.88;51.41;96079.34;105588;1261;66069;-45
2023/12/25 01:26:44;;;;;;;0.60;0.60;;;;;;;13.90;51.31;96072.98;105641;1263;72630;-46
2023/12/25 01:29:12;;;;;;;0.40;0.40;;;;;;;13.89;51.35;96072.20;105419;1261;62041;-46
2023/12/25 01:31:40;;;;;;;0.50;0.50;;;;;;;13.89;51.36;96064.98;105382;1257;62153;-46
2023/12/25 01:34:07;;;;;;;0.60;0.60;;;;;;;13.90;51.29;96057.52;105382;1262;75421;-44
2023/12/25 01:36:38;;;;;;;0.90;0.70;;;;;;;13.89;51.36;96060.83;105632;1263;66806;-45
2023/12/25 01:39:06;;;;;;;0.70;0.60;;;;;;;13.90;51.28;96058.08;105598;1262;72778;-45
2023/12/25 01:41:33;;;;;;;0.50;0.50;;;;;;;13.90;51.33;96056.77;105520;1260;62632;-45
2023/12/25 01:44:00;;;;;;;0.80;0.60;;;;;;;13.91;51.13;96049.93;105269;1257;62049;-45
2023/12/25 01:46:32;;;;;;;1.00;0.60;;;;;;;13.91;51.31;96049.39;105378;1260;75388;-44
2023/12/25 01:48:59;;;;;;;0.60;0.60;;;;;;;13.91;51.27;96047.64;105602;1261;65222;-44
2023/12/25 01:51:27;;;;;;;0.60;0.50;;;;;;;13.92;51.32;96041.81;105462;1262;73445;-45
2023/12/25 01:53:54;;;;;;;0.60;0.60;;;;;;;13.92;51.31;96046.12;105240;1262;62089;-44
2023/12/25 01:56:22;;;;;;;0.50;0.50;;;;;;;13.92;51.29;96043.20;105537;1257;62153;-45
2023/12/25 01:58:49;;;;;;;0.60;0.60;;;;;;;13.92;51.38;96040.20;105406;1257;75442;-45
2023/12/25 02:01:17;;;;;;;0.40;0.40;;;;;;;13.93;51.29;96020.75;105454;1259;66128;-45
2023/12/25 02:03:44;;;;;;;0.80;0.60;;;;;;;13.93;51.29;96022.67;105600;1259;72457;-45
2023/12/25 02:06:12;;;;;;;0.60;0.60;;;;;;;13.93;51.40;96013.37;105584;1261;62037;-45
2023/12/25 02:08:39;;;;;;;0.70;0.50;;;;;;;13.93;51.16;96024.59;105111;1262;62136;-44
2023/12/25 02:11:06;;;;;;;0.90;0.60;;;;;;;13.94;51.28;96017.08;105269;1262;75273;-45
2023/12/25 02:13:34;;;;;;;0.60;0.50;;;;;;;13.94;51.33;96023.09;105308;1264;65151;-45
2023/12/25 02:16:02;;;;;;;0.50;0.50;;;;;;;13.94;51.27;96015.94;105487;1259;72744;-45
2023/12/25 02:18:29;;;;;;;0.70;0.60;;;;;;;13.95;51.25;96016.55;105259;1263;62082;-45
2023/12/25 02:20:57;;;;;;;1.10;0.60;;;;;;;13.94;51.25;96021.87;105340;1262;62056;-45
2023/12/25 02:23:26;;;;;;;0.50;0.50;;;;;;;13.95;51.24;96022.33;105334;1258;75428;-45
2023/12/25 02:25:58;;;;;;;0.60;0.60;;;;;;;13.95;51.23;96016.41;105652;1259;66148;-45
2023/12/25 02:28:25;;;;;;;0.60;0.60;;;;;;;13.96;51.28;96015.50;105313;1259;72633;-45
2023/12/25 02:30:52;;;;;;;0.60;0.50;;;;;;;13.96;51.25;96008.13;105244;1262;62046;-45
2023/12/25 02:33:20;;;;;;;1.00;0.60;;;;;;;13.96;51.31;96016.20;105544;1258;62171;-45
2023/12/25 02:35:48;;;;;;;0.50;0.50;;;;;;;13.96;51.23;96004.98;105241;1262;75194;-45
2023/12/25 02:38:15;;;;;;;0.60;0.50;;;;;;;13.96;51.24;96001.36;105398;1262;65895;-45
2023/12/25 02:40:43;;;;;;;0.70;0.60;;;;;;;13.97;51.22;96004.36;105413;1262;72441;-46
2023/12/25 02:43:10;;;;;;;1.90;0.70;;;;;;;13.97;51.24;95997.29;105387;1261;62066;-45
2023/12/25 02:45:37;;;;;;;0.60;0.60;;;;;;;13.97;51.27;95999.91;105986;1261;62407;-45
2023/12/25 02:48:05;;;;;;;0.50;0.50;;;;;;;13.98;51.18;96002.30;105608;1258;75436;-45
2023/12/25 02:50:33;;;;;;;0.60;0.60;;;;;;;13.98;51.24;96006.48;106119;1260;66081;-45
2023/12/25 02:53:03;;;;;;;0.50;0.40;;;;;;;13.98;51.21;95994.70;105607;1260;72974;-45
2023/12/25 02:55:31;;;;;;;0.80;0.60;;;;;;;13.98;51.18;96002.16;106118;1261;62066;-45
2023/12/25 02:57:59;;;;;;;0.80;0.60;;;;;;;13.99;51.11;95998.33;105669;1262;62076;-45
2023/12/25 03:00:26;;;;;;;1.00;0.70;;;;;;;13.99;51.26;96001.56;105376;1257;75459;-45
2023/12/25 03:02:54;;;;;;;0.70;0.60;;;;;;;14.00;51.26;96003.33;105589;1263;64072;-45
2023/12/25 03:05:21;;;;;;;0.70;0.50;;;;;;;14.00;51.33;96006.58;105621;1264;72593;-45
2023/12/25 03:07:49;;;;;;;0.60;0.60;;;;;;;14.00;51.23;96004.73;105661;1261;62043;-45
2023/12/25 03:26:17;;;;;;;0.50;0.40;;;;;;;13.98;51.18;96008.62;105463;1260;73985;-45
2023/12/25 03:28:44;;;;;;;1.70;0.60;;;;;;;13.99;51.41;96014.33;105099;1265;62087;-45
2023/12/25 03:31:12;;;;;;;0.70;0.60;;;;;;;13.99;51.33;96011.09;105412;1262;62055;-45
2023/12/25 03:33:39;;;;;;;0.70;0.50;;;;;;;13.99;51.21;96013.41;105546;1262;75366;-45
2023/12/25 03:36:07;;;;;;;1.50;0.70;;;;;;;13.99;51.40;96011.87;105566;1262;66147;-45
2023/12/25 03:38:35;;;;;;;0.60;0.50;;;;;;;14.00;51.24;96017.11;105587;1258;72697;-46
2023/12/25 03:41:02;;;;;;;1.40;0.60;;;;;;;14.00;51.31;96017.19;105503;1261;62078;-45
2023/12/25 03:43:30;;;;;;;0.50;0.50;;;;;;;14.01;51.33;96023.59;105347;1262;62067;-46
2023/12/25 03:45:58;;;;;;;0.90;0.60;;;;;;;14.01;51.31;96021.91;105448;1258;75402;-45
2023/12/25 03:48:25;;;;;;;2.70;0.80;;;;;;;14.01;51.30;96022.60;105292;1261;66365;-45
2023/12/25 03:50:53;;;;;;;1.40;0.60;;;;;;;14.02;51.28;96025.59;105423;1261;72587;-45
2023/12/25 03:53:21;;;;;;;3.00;0.60;;;;;;;14.02;51.31;96018.84;105311;1271;62359;-45
2023/12/25 03:55:48;;;;;;;0.50;0.40;;;;;;;14.02;51.21;96018.14;105472;1261;62166;-45
2023/12/25 03:58:15;;;;;;;1.00;0.50;;;;;;;14.03;51.25;96020.94;105595;1257;75206;-45
2023/12/25 04:00:44;;;;;;;1.20;0.50;;;;;;;14.04;51.33;96019.55;105834;1262;66161;-44
2023/12/25 04:03:11;;;;;;;0.50;0.50;;;;;;;14.03;51.18;96024.70;105337;1257;73171;-45
2023/12/25 04:05:39;;;;;;;0.80;0.60;;;;;;;14.04;51.28;96027.16;105782;1262;62057;-45
2023/12/25 04:08:06;;;;;;;1.20;0.60;;;;;;;14.04;51.31;96023.86;105597;1261;62165;-45
2023/12/25 04:10:34;;;;;;;0.60;0.60;;;;;;;14.05;51.28;96027.72;106058;1263;75288;-45
2023/12/25 04:13:03;;;;;;;0.60;0.40;;;;;;;14.05;51.23;96034.51;105663;1262;64770;-44
2023/12/25 04:15:30;;;;;;;1.10;0.60;;;;;;;14.05;51.17;96030.58;106116;1262;72367;-45
2023/12/25 04:17:57;;;;;;;1.60;0.50;;;;;;;14.06;51.34;96028.82;105264;1263;62054;-45
2023/12/25 04:20:26;;;;;;;0.90;0.70;;;;;;;14.06;51.29;96043.05;105551;1262;62359;-45
2023/12/25 04:22:53;;;;;;;2.30;0.50;;;;;;;14.06;51.20;96036.45;105376;1262;75324;-45
2023/12/25 04:25:21;;;;;;;1.30;0.40;;;;;;;14.07;51.22;96046.83;105129;1261;64138;-45
2023/12/25 04:27:50;;;;;;;1.30;0.40;;;;;;;14.07;51.20;96048.85;105399;1261;72726;-45
2023/12/25 04:30:18;;;;;;;0.60;0.60;;;;;;;14.07;51.18;96042.77;105585;1261;62584;-45
2023/12/25 04:32:45;;;;;;;0.60;0.50;;;;;;;14.07;51.12;96038.62;105205;1258;62059;-45
2023/12/25 04:35:13;;;;;;;0.50;0.40;;;;;;;14.07;51.21;96037.31;105136;1257;75380;-45
2023/12/25 04:37:40;;;;;;;0.70;0.40;;;;;;;14.08;51.30;96027.02;105392;1261;65842;-45
2023/12/25 04:40:09;;;;;;;0.40;0.40;;;;;;;14.08;51.22;96036.09;105379;1262;71507;-45
2023/12/25 04:42:37;;;;;;;0.50;0.50;;;;;;;14.08;51.19;96037.26;105316;1262;62225;-45
2023/12/25 04:45:05;;;;;;;0.50;0.30;;;;;;;14.09;51.22;96034.48;105291;1262;62497;-45
2023/12/25 04:47:33;;;;;;;1.10;0.60;;;;;;;14.09;51.17;96037.42;105648;1261;75891;-45
2023/12/25 04:50:00;;;;;;;0.50;0.50;;;;;;;14.09;51.27;96040.80;105466;1262;66354;-44
2023/12/25 04:52:29;;;;;;;0.80;0.50;;;;;;;14.09;51.20;96044.02;105574;1271;72377;-45
2023/12/25 04:54:56;;;;;;;0.50;0.50;;;;;;;14.10;51.29;96037.50;105572;1261;62083;-45
2023/12/25 04:57:23;;;;;;;0.60;0.50;;;;;;;14.10;51.28;96040.51;105344;1260;62151;-45
2023/12/25 04:59:51;;;;;;;2.20;0.60;;;;;;;14.10;51.20;96037.27;105163;1261;75426;-45
2023/12/25 05:02:19;;;;;;;0.50;0.50;;;;;;;14.10;51.20;96040.44;105193;1261;66022;-45
2023/12/25 05:04:46;;;;;;;1.40;0.60;;;;;;;14.10;51.28;96043.96;105025;1257;72466;-45
2023/12/25 05:07:13;;;;;;;0.50;0.50;;;;;;;14.10;51.32;96048.66;105424;1265;62052;-45
2023/12/25 05:09:41;;;;;;;0.50;0.40;;;;;;;14.10;51.17;96048.05;105631;1262;62075;-45
2023/12/25 05:12:08;;;;;;;0.50;0.50;;;;;;;14.10;51.14;96049.52;105624;1263;75206;-45
2023/12/25 05:14:35;;;;;;;0.90;0.50;;;;;;;14.11;51.17;96047.90;105471;1262;65631;-45
2023/12/25 05:17:03;;;;;;;0.50;0.50;;;;;;;14.11;51.16;96047.20;105530;1262;72375;-45
2023/12/25 05:19:30;;;;;;;0.60;0.60;;;;;;;14.12;51.07;96056.98;105412;1264;62119;-45
2023/12/25 05:21:58;;;;;;;2.50;0.70;;;;;;;14.11;51.15;96058.35;105522;1262;62096;-45
2023/12/25 05:24:25;;;;;;;0.70;0.50;;;;;;;14.12;51.13;96057.15;105305;1264;75197;-45
2023/12/25 05:26:52;;;;;;;0.50;0.50;;;;;;;14.12;51.11;96056.00;105214;1262;65407;-45
2023/12/25 05:29:20;;;;;;;0.50;0.50;;;;;;;14.12;51.11;96054.08;105427;1258;72621;-45
2023/12/25 05:31:48;;;;;;;0.60;0.50;;;;;;;14.12;51.18;96059.23;105406;1261;62044;-45
2023/12/25 05:34:15;;;;;;;0.40;0.40;;;;;;;14.12;51.12;96058.47;105544;1260;62065;-46
2023/12/25 05:36:43;;;;;;;0.60;0.50;;;;;;;14.13;51.21;96053.70;105600;1260;75426;-46
2023/12/25 05:39:10;;;;;;;0.70;0.50;;;;;;;14.12;51.15;96060.77;105187;1263;65799;-46
2023/12/25 05:41:41;;;;;;;0.50;0.50;;;;;;;14.12;51.17;96062.55;105601;1261;72397;-45
2023/12/25 05:44:08;;;;;;;0.40;0.40;;;;;;;14.13;51.11;96061.02;105597;1258;62936;-45
2023/12/25 05:46:36;;;;;;;0.40;0.40;;;;;;;14.13;51.28;96057.34;105629;1262;62522;-45
2023/12/25 05:49:04;;;;;;;0.50;0.50;;;;;;;14.13;51.21;96056.02;105614;1261;74475;-46
2023/12/25 05:51:32;;;;;;;0.60;0.40;;;;;;;14.13;51.15;96057.55;105284;1261;64910;-44
2023/12/25 05:54:00;;;;;;;0.80;0.40;;;;;;;14.13;51.21;96060.48;105190;1261;72698;-45
2023/12/25 05:56:28;;;;;;;0.40;0.30;;;;;;;14.13;51.13;96065.17;105216;1257;62149;-45
2023/12/25 05:58:55;;;;;;;0.30;0.30;;;;;;;14.14;51.16;96071.64;105424;1257;62103;-45
2023/12/25 06:01:23;;;;;;;0.50;0.50;;;;;;;14.14;51.18;96068.42;105385;1259;74894;-46
2023/12/25 06:03:50;;;;;;;0.50;0.30;;;;;;;14.14;51.06;96065.41;105304;1263;65621;-46
2023/12/25 06:06:18;;;;;;;0.60;0.50;;;;;;;14.14;51.12;96070.41;105311;1257;72620;-46
2023/12/25 06:08:46;;;;;;;0.50;0.40;;;;;;;14.14;51.14;96076.96;105549;1260;62063;-46
2023/12/25 06:11:14;;;;;;;0.70;0.50;;;;;;;14.15;51.12;96078.51;105618;1260;61939;-44
2023/12/25 06:13:41;;;;;;;1.00;0.60;;;;;;;14.15;51.13;96084.91;105566;1263;75325;-45
2023/12/25 06:16:08;;;;;;;0.70;0.50;;;;;;;14.15;51.17;96082.36;105592;1261;65694;-45
2023/12/25 06:18:36;;;;;;;0.80;0.50;;;;;;;14.15;51.22;96087.52;105487;1263;72622;-45
2023/12/25 06:21:03;;;;;;;0.40;0.40;;;;;;;14.15;51.27;96089.21;105375;1261;62105;-45
2023/12/25 06:23:31;;;;;;;0.60;0.40;;;;;;;14.15;51.20;96097.21;105299;1261;62183;-46
2023/12/25 06:25:59;;;;;;;0.60;0.40;;;;;;;14.16;51.20;96098.14;105177;1261;75214;-46
2023/12/25 06:28:26;;;;;;;0.40;0.40;;;;;;;14.16;51.24;96102.45;105258;1261;65489;-46
2023/12/25 06:30:53;;;;;;;0.50;0.50;;;;;;;14.15;51.11;96104.69;105592;1257;72604;-45
2023/12/25 06:33:21;;;;;;;0.40;0.40;;;;;;;14.16;51.14;96110.38;105568;1261;62062;-45
2023/12/25 06:35:48;;;;;;;0.30;0.30;;;;;;;14.16;51.20;96109.75;105171;1264;62135;-45
2023/12/25 06:38:16;;;;;;;0.80;0.50;;;;;;;14.16;51.29;96106.69;105548;1261;75182;-45
2023/12/25 06:40:43;;;;;;;0.50;0.50;;;;;;;14.16;51.15;96112.38;105523;1257;66528;-47
2023/12/25 06:43:10;;;;;;;0.90;0.30;;;;;;;14.17;51.12;96118.23;105511;1257;71707;-44
2023/12/25 06:45:37;;;;;;;0.40;0.40;;;;;;;14.16;51.19;96114.15;105308;1261;61974;-45
2023/12/25 06:48:05;;;;;;;1.00;0.40;;;;;;;14.17;51.17;96117.02;105413;1261;62067;-45
2023/12/25 06:50:34;;;;;;;0.90;0.40;;;;;;;14.18;51.12;96116.48;106089;1261;75285;-45
2023/12/25 06:53:01;;;;;;;0.70;0.60;;;;;;;14.18;51.12;96111.16;105648;1258;65958;-45
2023/12/25 06:55:28;;;;;;;0.30;0.30;;;;;;;14.18;51.10;96112.25;105512;1261;72679;-45
2023/12/25 06:57:56;;;;;;;0.90;0.60;;;;;;;14.18;51.18;96112.02;105264;1260;62063;-45
2023/12/25 07:00:23;;;;;;;0.50;0.50;;;;;;;14.18;51.23;96117.25;105334;1258;154146;-45
2023/12/25 07:02:50;;;;;;;0.40;0.30;;;;;;;14.18;51.12;96125.78;105163;1260;75893;-45
2023/12/25 07:05:18;;;;;;;0.30;0.30;;;;;;;14.18;51.25;96124.10;105515;1258;65987;-45
2023/12/25 07:07:46;;;;;;;0.60;0.50;;;;;;;14.18;51.25;96123.02;105299;1257;72628;-45
2023/12/25 07:10:14;;;;;;;0.40;0.40;;;;;;;14.19;51.15;96118.27;105363;1260;62056;-45
2023/12/25 07:12:42;;;;;;;0.60;0.40;;;;;;;14.19;51.30;96109.27;105154;1258;62082;-45
2023/12/25 07:15:09;;;;;;;0.40;0.40;;;;;;;14.19;51.17;96111.58;105317;1262;75475;-45
2023/12/25 07:17:37;;;;;;;0.40;0.40;;;;;;;14.19;51.22;96112.50;105176;1261;66026;-45
2023/12/25 07:20:05;;;;;;;0.80;0.60;;;;;;;14.19;51.18;96119.75;105191;1258;72599;-45
2023/12/25 07:22:33;;;;;;;0.40;0.40;;;;;;;14.19;51.15;96113.13;105252;1261;62068;-45
2023/12/25 07:25:05;;;;;;;0.40;0.40;;;;;;;14.20;51.15;96107.83;105128;1257;62147;-45
2023/12/25 07:27:34;;;;;;;0.30;0.30;;;;;;;14.20;51.16;96105.77;105410;1260;75434;-45
2023/12/25 07:30:02;;;;;;;0.50;0.50;;;;;;;14.20;51.13;96072.76;105397;1260;64673;-45
2023/12/25 07:32:30;;;;;;;0.40;0.40;;;;;;;14.20;51.15;96078.38;105286;1259;72631;-45
2023/12/25 07:34:58;;;;;;;0.60;0.50;;;;;;;14.21;51.24;96087.70;105477;1260;62138;-45
2023/12/25 07:37:25;;;;;;;0.50;0.40;;;;;;;14.21;51.17;96103.70;105476;1261;62089;-45
2023/12/25 07:39:53;;;;;;;1.80;0.50;;;;;;;14.22;51.18;96120.48;105154;1258;75410;-44
2023/12/25 07:42:20;;;;;;;4.00;0.60;;;;;;;14.22;51.16;96133.80;105382;1260;66204;-48
2023/12/25 07:44:47;;;;;;;5.00;0.90;;;;;;;14.24;51.59;96143.75;105487;1257;72585;-46
2023/12/25 07:47:15;;;;;;;3.50;0.60;;;;;;;14.28;52.28;96140.84;105237;1260;62038;-52
2023/12/25 07:49:42;;;;;;;1.90;0.60;;;;;;;14.33;52.42;96140.94;105395;1258;62012;-51
2023/12/25 07:52:10;;;;;;;1.80;0.60;;;;;;;14.37;52.78;96140.02;105475;1258;74152;-50
2023/12/25 07:54:37;;;;;;;1.50;0.60;;;;;;;14.41;52.72;96143.40;105286;1258;63982;-51
2023/12/25 07:57:04;;;;;;;2.10;0.50;;;;;;;14.45;52.69;96145.69;105558;1257;72465;-48
2023/12/25 07:59:32;;;;;;;0.60;0.60;;;;;;;14.48;52.66;96146.73;105479;1261;62075;-49
2023/12/25 08:01:59;;;;;;;0.80;0.60;;;;;;;14.50;52.64;96165.56;105439;1257;62599;-46
2023/12/25 08:04:27;;;;;;;3.40;0.80;;;;;;;14.53;52.68;96170.38;105560;1260;75973;-48
2023/12/25 08:06:54;;;;;;;3.10;0.50;;;;;;;14.54;52.68;96177.34;105569;1260;66179;-50
2023/12/25 08:09:22;;;;;;;2.90;0.50;;;;;;;14.56;52.57;96197.16;105260;1258;72257;-49
2023/12/25 08:11:49;;;;;;;0.80;0.50;;;;;;;14.58;52.58;96199.19;105271;1261;62053;-48
2023/12/25 08:14:16;;;;;;;0.70;0.40;;;;;;;14.58;52.52;96207.73;105492;1257;62223;-47
2023/12/25 08:16:44;;;;;;;0.60;0.50;;;;;;;14.59;52.45;96218.83;105548;1260;74252;-47
2023/12/25 08:19:11;;;;;;;1.10;0.50;;;;;;;14.60;52.41;96223.99;105562;1269;66081;-48
2023/12/25 08:21:40;;;;;;;0.50;0.40;;;;;;;14.60;52.49;96230.39;105514;1257;71382;-53
2023/12/25 08:24:07;;;;;;;1.80;0.50;;;;;;;14.61;52.38;96229.55;105455;1261;62142;-52
2023/12/25 08:26:35;;;;;;;0.40;0.40;;;;;;;14.61;52.43;96234.40;105197;1257;62054;-51
2023/12/25 08:29:02;;;;;;;0.70;0.40;;;;;;;14.61;52.35;96232.72;105409;1261;75211;-50
2023/12/25 08:31:30;;;;;;;0.60;0.50;;;;;;;14.61;52.49;96245.17;105390;1260;63060;-45
2023/12/25 08:33:57;;;;;;;0.60;0.40;;;;;;;14.62;52.47;96252.14;105242;1258;72625;-47
2023/12/25 08:36:25;;;;;;;1.90;0.50;;;;;;;14.61;52.49;96254.36;105292;1261;62026;-47
2023/12/25 08:38:52;;;;;;;0.60;0.50;;;;;;;14.62;52.38;96260.75;105160;1257;62231;-48
2023/12/25 08:41:19;;;;;;;0.40;0.40;;;;;;;14.61;52.31;96259.73;105515;1257;75868;-49
2023/12/25 08:43:47;;;;;;;3.80;0.60;;;;;;;14.61;52.46;96262.04;105565;1261;65968;-46
2023/12/25 08:46:17;;;;;;;1.50;0.50;;;;;;;14.60;52.54;96257.10;105567;1257;73143;-46
2023/12/25 08:48:44;;;;;;;0.60;0.50;;;;;;;14.60;52.30;96259.63;105557;1261;62074;-48
2023/12/25 08:51:13;;;;;;;0.60;0.40;;;;;;;14.60;52.27;96262.48;105562;1258;62109;-47
2023/12/25 08:53:41;;;;;;;1.00;0.60;;;;;;;14.60;52.18;96268.27;105500;1258;73873;-46
2023/12/25 08:56:09;;;;;;;0.60;0.40;;;;;;;14.60;52.25;96268.56;105148;1263;67479;-48
2023/12/25 08:58:36;;;;;;;1.60;0.50;;;;;;;14.60;52.21;96271.05;105535;1258;72924;-46
2023/12/25 09:01:04;;;;;;;0.70;0.50;;;;;;;14.60;51.98;96276.42;105142;1264;62085;-47
2023/12/25 09:03:31;;;;;;;0.40;0.30;;;;;;;14.59;51.96;96280.19;105437;1257;62660;-48
2023/12/25 09:05:59;;;;;;;0.50;0.50;;;;;;;14.59;52.04;96252.93;105297;1258;75387;-48
2023/12/25 09:08:26;;;;;;;0.50;0.50;;;;;;;14.59;51.92;96251.61;105604;1260;66082;-47
2023/12/25 09:10:54;;;;;;;1.10;0.50;;;;;;;14.58;51.96;96247.98;105587;1259;72720;-47
2023/12/25 09:13:21;;;;;;;0.50;0.50;;;;;;;14.58;51.84;96247.77;105523;1260;62062;-47
2023/12/25 09:15:48;;;;;;;1.90;0.40;;;;;;;14.57;51.83;96238.35;105327;1261;62085;-47
2023/12/25 09:18:16;;;;;;;2.30;0.50;;;;;;;14.57;51.84;96242.59;105112;1258;75262;-47
2023/12/25 09:20:43;;;;;;;1.20;0.50;;;;;;;14.57;51.79;96241.13;105568;1260;67023;-48
2023/12/25 09:23:11;;;;;;;0.60;0.50;;;;;;;14.57;51.97;96238.03;105499;1260;72741;-47
2023/12/25 09:25:38;;;;;;;1.70;0.60;;;;;;;14.57;52.20;96238.34;105763;1260;62019;-48
2023/12/25 09:28:07;;;;;;;0.50;0.40;;;;;;;14.56;52.57;96233.80;105342;1257;62153;-48
2023/12/25 09:30:35;;;;;;;0.90;0.50;;;;;;;14.57;52.83;96241.04;105337;1257;75978;-48
2023/12/25 09:33:03;;;;;;;1.40;0.40;;;;;;;14.57;52.75;96249.05;105519;1261;66026;-46
2023/12/25 09:35:30;;;;;;;2.50;0.60;;;;;;;14.57;52.93;96251.52;105542;1256;70180;-45
2023/12/25 09:37:58;;;;;;;2.40;0.50;;;;;;;14.58;52.98;96242.45;105481;1257;61985;-46
2023/12/25 09:40:26;;;;;;;0.50;0.50;;;;;;;14.58;53.03;96241.60;105179;1257;62109;-45
2023/12/25 09:42:53;;;;;;;0.90;0.50;;;;;;;14.58;53.03;96235.52;105435;1257;76486;-47
2023/12/25 09:45:21;;;;;;;2.40;0.60;;;;;;;14.59;53.02;96225.14;105113;1262;66175;-45
2023/12/25 09:47:49;;;;;;;0.60;0.40;;;;;;;14.59;53.14;96223.75;105401;1261;73684;-45
2023/12/25 09:50:17;;;;;;;0.70;0.50;;;;;;;14.59;53.12;96237.23;105281;1260;61939;-46
2023/12/25 09:52:44;;;;;;;2.10;0.50;;;;;;;14.60;53.02;96233.86;105514;1260;62078;-47
2023/12/25 09:55:11;;;;;;;0.70;0.50;;;;;;;14.60;53.03;96237.47;105277;1262;75298;-46
2023/12/25 09:57:39;;;;;;;1.10;0.70;;;;;;;14.60;52.90;96237.84;105123;1260;66228;-46
2023/12/25 10:00:08;;;;;;;1.20;0.60;;;;;;;14.60;52.97;96238.61;105471;1256;71138;-46
2023/12/25 10:02:42;;;;;;;0.70;0.50;;;;;;;14.60;52.95;96243.09;105190;1260;62069;-46
2023/12/25 10:05:09;;;;;;;1.30;0.50;;;;;;;14.59;53.04;96239.55;105389;1258;62046;-46
2023/12/25 10:07:37;;;;;;;0.80;0.60;;;;;;;14.60;52.87;96235.70;105191;1262;76454;-47
2023/12/25 10:10:05;;;;;;;2.20;0.70;;;;;;;14.60;52.84;96247.24;105227;1257;65750;-45
2023/12/25 10:12:33;;;;;;;1.20;0.70;;;;;;;14.60;52.84;96246.48;105373;1256;72591;-45
2023/12/25 10:15:00;;;;;;;4.70;0.70;;;;;;;14.60;52.82;96256.04;105165;1261;62105;-46
2023/12/25 10:17:28;;;;;;;2.40;0.70;;;;;;;14.60;52.74;96260.95;105496;1256;62099;-47
2023/12/25 10:19:56;;;;;;;1.40;0.50;;;;;;;14.60;52.85;96261.34;105561;1258;75383;-46
2023/12/25 10:22:34;;;;;;;1.60;0.80;;;;;;;14.60;52.75;96257.10;105253;1256;66305;-45
2023/12/25 10:25:10;;;;;;;1.60;0.40;;;;;;;14.60;52.71;96247.55;105182;1257;73485;-46
2023/12/25 10:27:38;;;;;;;1.30;0.70;;;;;;;14.59;52.70;96240.38;105293;1258;61910;-47
2023/12/25 10:30:26;;;;;;;0.90;0.70;;;;;;;14.59;52.75;96240.14;105320;1258;62024;-47
2023/12/25 10:33:12;;;;;;;1.20;0.70;;;;;;;14.60;52.69;96241.77;105170;1261;75130;-47
2023/12/25 10:35:41;;;;;;;1.10;0.70;;;;;;;14.60;52.66;96254.40;105687;1257;65968;-48
2023/12/25 10:38:19;;;;;;;3.30;0.60;;;;;;;14.60;52.70;96258.73;105475;1258;72581;-47
2023/12/25 10:40:47;;;;;;;0.90;0.50;;;;;;;14.61;52.62;96252.48;105448;1260;62593;-47
2023/12/25 10:43:14;;;;;;;0.90;0.60;;;;;;;14.61;52.51;96260.52;105272;1256;62066;-47
2023/12/25 10:45:42;;;;;;;2.80;0.70;;;;;;;14.61;52.53;96257.05;105671;1261;75530;-47
2023/12/25 10:48:10;;;;;;;0.90;0.60;;;;;;;14.62;52.45;96254.07;105179;1260;66106;-47
2023/12/25 10:50:38;;;;;;;1.20;0.50;;;;;;;14.63;52.56;96259.77;105596;1256;72323;-47
2023/12/25 10:53:06;;;;;;;1.30;0.50;;;;;;;14.63;52.40;96263.70;105214;1264;62152;-45
2023/12/25 10:55:41;;;;;;;1.20;0.60;;;;;;;14.63;52.27;96262.77;105118;1263;62769;-44
2023/12/25 10:58:12;;;;;;;1.90;0.60;;;;;;;14.63;52.06;96268.16;105130;1257;74255;-45
2023/12/25 11:00:45;;;;;;;0.90;0.70;;;;;;;14.62;52.23;96274.09;105906;1257;64804;-45
2023/12/25 11:03:14;;;;;;;0.60;0.60;;;;;;;14.61;52.15;96275.70;105244;1260;72015;-44
2023/12/25 11:05:43;;;;;;;3.10;0.80;;;;;;;14.61;52.10;96277.21;105568;1257;62146;-44
2023/12/25 11:08:13;;;;;;;1.10;0.80;;;;;;;14.60;52.12;96281.58;105303;1257;62018;-45
2023/12/25 11:10:47;;;;;;;1.50;0.80;;;;;;;14.59;51.99;96277.71;105759;1257;76467;-45
2023/12/25 11:13:14;;;;;;;1.70;0.60;;;;;;;14.58;51.98;96277.70;105254;1258;65552;-45
2023/12/25 11:15:42;;;;;;;1.60;0.80;;;;;;;14.57;51.88;96274.23;105437;1257;72738;-44
2023/12/25 11:18:09;;;;;;;3.30;0.90;;;;;;;14.56;52.00;96278.73;105381;1260;62519;-47
2023/12/25 11:20:40;;;;;;;1.30;0.90;;;;;;;14.55;51.91;96271.95;105880;1258;62136;-47
2023/12/25 11:23:07;;;;;;;1.70;0.50;;;;;;;14.54;51.94;96270.30;105517;1260;75815;-46
2023/12/25 11:25:35;;;;;;;1.50;0.70;;;;;;;14.53;52.00;96267.21;105414;1259;65980;-46
2023/12/25 11:28:03;;;;;;;1.50;0.60;;;;;;;14.53;52.10;96273.51;105192;1257;72546;-46
2023/12/25 11:30:31;;;;;;;1.00;0.60;;;;;;;14.52;52.05;96278.59;105585;1260;62041;-46
2023/12/25 11:32:59;;;;;;;2.20;0.80;;;;;;;14.52;52.13;96281.52;105556;1257;62054;-46
2023/12/25 11:35:28;;;;;;;1.50;0.80;;;;;;;14.51;52.12;96279.79;105496;1257;75369;-46
2023/12/25 11:38:25;;;;;;;1.20;0.70;;;;;;;14.51;52.10;96278.95;105437;1256;66127;-46
2023/12/25 11:40:53;;;;;;;1.10;0.70;;;;;;;14.50;52.08;96273.77;105634;1258;73432;-46
2023/12/25 11:43:20;;;;;;;1.10;0.90;;;;;;;14.49;52.17;96271.75;105599;1260;62031;-46